sensor_id;sensor_type;location;lat;lon;timestamp;pressure;altitude;pressure_sealevel;temperature;humidity
51603;BME280;37954;51.980;5.850;2023-07-13T00:01:39;101059.16;;;17.01;72.55
51603;BME280;37954;51.980;5.850;2023-07-13T00:05:59;101053.97;;;16.95;72.70
51603;BME280;37954;51.980;5.850;2023-07-13T00:10:11;101057.50;;;16.95;72.60
51603;BME280;37954;51.980;5.850;2023-07-13T00:14:24;101068.44;;;17.05;72.79
51603;BME280;37954;51.980;5.850;2023-07-13T00:18:37;101069.88;;;17.13;73.04
51603;BME280;37954;51.980;5.850;2023-07-13T00:22:49;101072.59;;;17.18;72.81
51603;BME280;37954;51.980;5.850;2023-07-13T00:27:01;101060.38;;;17.16;72.61
51603;BME280;37954;51.980;5.850;2023-07-13T00:31:13;101066.59;;;17.11;72.31
51603;BME280;37954;51.980;5.850;2023-07-13T00:35:30;101055.38;;;17.02;72.05
51603;BME280;37954;51.980;5.850;2023-07-13T00:39:42;101062.38;;;16.93;72.17
51603;BME280;37954;51.980;5.850;2023-07-13T00:43:54;101072.28;;;16.83;72.10
51603;BME280;37954;51.980;5.850;2023-07-13T00:48:05;101074.41;;;16.76;72.11
51603;BME280;37954;51.980;5.850;2023-07-13T00:52:17;101068.09;;;16.70;72.29
51603;BME280;37954;51.980;5.850;2023-07-13T00:56:30;101060.41;;;16.62;72.50
51603;BME280;37954;51.980;5.850;2023-07-13T01:00:46;101066.00;;;16.55;72.65
51603;BME280;37954;51.980;5.850;2023-07-13T01:04:58;101061.59;;;16.49;72.78
51603;BME280;37954;51.980;5.850;2023-07-13T01:09:12;101068.06;;;16.43;73.28
51603;BME280;37954;51.980;5.850;2023-07-13T01:13:25;101073.41;;;16.38;73.44
51603;BME280;37954;51.980;5.850;2023-07-13T01:17:37;101080.72;;;16.38;73.16
51603;BME280;37954;51.980;5.850;2023-07-13T01:21:52;101070.63;;;16.33;73.30
51603;BME280;37954;51.980;5.850;2023-07-13T01:26:04;101066.78;;;16.29;73.26
51603;BME280;37954;51.980;5.850;2023-07-13T01:30:16;101068.13;;;16.26;73.52
51603;BME280;37954;51.980;5.850;2023-07-13T01:34:27;101074.31;;;16.22;73.29
51603;BME280;37954;51.980;5.850;2023-07-13T01:38:39;101077.25;;;16.20;73.38
51603;BME280;37954;51.980;5.850;2023-07-13T01:42:55;101070.13;;;16.14;73.61
51603;BME280;37954;51.980;5.850;2023-07-13T01:47:07;101069.63;;;16.17;73.77
51603;BME280;37954;51.980;5.850;2023-07-13T01:51:19;101071.53;;;16.17;73.78
51603;BME280;37954;51.980;5.850;2023-07-13T01:55:33;101059.53;;;16.13;73.96
51603;BME280;37954;51.980;5.850;2023-07-13T01:59:46;101062.50;;;16.11;73.79
51603;BME280;37954;51.980;5.850;2023-07-13T02:03:58;101067.31;;;16.04;73.71
51603;BME280;37954;51.980;5.850;2023-07-13T02:08:12;101073.72;;;15.98;73.72
51603;BME280;37954;51.980;5.850;2023-07-13T02:12:24;101083.09;;;15.90;74.41
51603;BME280;37954;51.980;5.850;2023-07-13T02:16:36;101084.66;;;15.86;74.28
51603;BME280;37954;51.980;5.850;2023-07-13T02:20:48;101084.09;;;15.84;74.52
51603;BME280;37954;51.980;5.850;2023-07-13T02:25:00;101085.34;;;15.77;74.98
51603;BME280;37954;51.980;5.850;2023-07-13T02:29:12;101082.31;;;15.73;75.13
51603;BME280;37954;51.980;5.850;2023-07-13T02:33:23;101089.06;;;15.71;75.12
51603;BME280;37954;51.980;5.850;2023-07-13T02:37:35;101102.84;;;15.69;75.36
51603;BME280;37954;51.980;5.850;2023-07-13T02:41:47;101093.00;;;15.63;75.54
51603;BME280;37954;51.980;5.850;2023-07-13T02:46:00;101081.53;;;15.56;75.83
51603;BME280;37954;51.980;5.850;2023-07-13T02:50:20;101084.00;;;15.57;75.92
51603;BME280;37954;51.980;5.850;2023-07-13T02:54:31;101087.41;;;15.53;76.08
51603;BME280;37954;51.980;5.850;2023-07-13T02:58:43;101092.00;;;15.52;76.41
51603;BME280;37954;51.980;5.850;2023-07-13T03:02:55;101098.63;;;15.45;76.52
51603;BME280;37954;51.980;5.850;2023-07-13T03:07:10;101101.59;;;15.43;76.16
51603;BME280;37954;51.980;5.850;2023-07-13T03:11:22;101097.16;;;15.37;76.61
51603;BME280;37954;51.980;5.850;2023-07-13T03:15:50;101107.75;;;15.39;76.99
51603;BME280;37954;51.980;5.850;2023-07-13T03:20:03;101109.31;;;15.35;77.27
51603;BME280;37954;51.980;5.850;2023-07-13T03:24:15;101111.09;;;15.29;77.40
51603;BME280;37954;51.980;5.850;2023-07-13T03:28:28;101113.81;;;15.29;77.82
51603;BME280;37954;51.980;5.850;2023-07-13T03:32:40;101110.28;;;15.28;77.78
51603;BME280;37954;51.980;5.850;2023-07-13T03:36:55;101116.19;;;15.25;78.21
51603;BME280;37954;51.980;5.850;2023-07-13T03:41:08;101114.81;;;15.23;78.14
51603;BME280;37954;51.980;5.850;2023-07-13T03:45:20;101113.16;;;15.22;78.37
51603;BME280;37954;51.980;5.850;2023-07-13T03:49:32;101120.47;;;15.21;78.65
51603;BME280;37954;51.980;5.850;2023-07-13T03:53:45;101131.03;;;15.23;78.81
51603;BME280;37954;51.980;5.850;2023-07-13T03:58:34;101137.09;;;15.30;78.56
51603;BME280;37954;51.980;5.850;2023-07-13T04:02:55;101141.22;;;15.32;78.54
51603;BME280;37954;51.980;5.850;2023-07-13T04:07:07;101136.13;;;15.36;78.91
51603;BME280;37954;51.980;5.850;2023-07-13T04:11:25;101140.31;;;15.44;78.84
51603;BME280;37954;51.980;5.850;2023-07-13T04:15:38;101134.75;;;15.50;78.50
51603;BME280;37954;51.980;5.850;2023-07-13T04:19:50;101144.94;;;15.60;78.70
51603;BME280;37954;51.980;5.850;2023-07-13T04:24:02;101147.91;;;15.75;78.72
51603;BME280;37954;51.980;5.850;2023-07-13T04:28:16;101149.22;;;15.89;78.77
51603;BME280;37954;51.980;5.850;2023-07-13T04:32:29;101154.44;;;15.96;78.43
51603;BME280;37954;51.980;5.850;2023-07-13T04:36:41;101154.50;;;16.01;78.34
51603;BME280;37954;51.980;5.850;2023-07-13T04:40:56;101151.94;;;16.11;78.37
51603;BME280;37954;51.980;5.850;2023-07-13T04:45:08;101155.13;;;16.25;78.77
51603;BME280;37954;51.980;5.850;2023-07-13T04:49:20;101158.22;;;16.33;78.55
51603;BME280;37954;51.980;5.850;2023-07-13T04:53:32;101160.25;;;16.43;78.56
51603;BME280;37954;51.980;5.850;2023-07-13T04:57:46;101159.56;;;16.53;78.65
51603;BME280;37954;51.980;5.850;2023-07-13T05:01:58;101157.56;;;16.65;78.26
51603;BME280;37954;51.980;5.850;2023-07-13T05:06:10;101161.97;;;16.71;78.16
51603;BME280;37954;51.980;5.850;2023-07-13T05:10:22;101165.03;;;16.80;77.76
51603;BME280;37954;51.980;5.850;2023-07-13T05:14:35;101181.22;;;16.91;77.97
51603;BME280;37954;51.980;5.850;2023-07-13T05:18:46;101187.81;;;17.00;77.81
51603;BME280;37954;51.980;5.850;2023-07-13T05:22:58;101187.88;;;17.05;77.91
51603;BME280;37954;51.980;5.850;2023-07-13T05:27:10;101184.16;;;17.12;77.81
51603;BME280;37954;51.980;5.850;2023-07-13T05:31:22;101193.69;;;17.14;77.69
51603;BME280;37954;51.980;5.850;2023-07-13T05:35:34;101196.41;;;17.14;77.90
51603;BME280;37954;51.980;5.850;2023-07-13T05:39:46;101199.13;;;17.19;78.03
51603;BME280;37954;51.980;5.850;2023-07-13T05:43:57;101197.38;;;17.30;77.93
51603;BME280;37954;51.980;5.850;2023-07-13T05:48:09;101203.72;;;17.40;77.86
51603;BME280;37954;51.980;5.850;2023-07-13T05:52:21;101204.72;;;17.61;77.51
51603;BME280;37954;51.980;5.850;2023-07-13T05:56:33;101198.66;;;17.81;77.40
51603;BME280;37954;51.980;5.850;2023-07-13T06:00:45;101214.06;;;18.07;76.92
51603;BME280;37954;51.980;5.850;2023-07-13T06:04:57;101212.91;;;18.40;76.53
51603;BME280;37954;51.980;5.850;2023-07-13T06:09:09;101216.63;;;18.66;75.63
51603;BME280;37954;51.980;5.850;2023-07-13T06:13:21;101232.75;;;18.83;74.76
51603;BME280;37954;51.980;5.850;2023-07-13T06:17:33;101232.03;;;19.03;74.49
51603;BME280;37954;51.980;5.850;2023-07-13T06:21:44;101233.44;;;19.21;74.18
51603;BME280;37954;51.980;5.850;2023-07-13T06:25:56;101241.88;;;19.19;73.62
51603;BME280;37954;51.980;5.850;2023-07-13T06:30:09;101231.53;;;19.31;73.73
51603;BME280;37954;51.980;5.850;2023-07-13T06:34:21;101255.63;;;19.95;73.11
51603;BME280;37954;51.980;5.850;2023-07-13T06:38:33;101265.69;;;20.30;71.89
51603;BME280;37954;51.980;5.850;2023-07-13T06:42:45;101263.19;;;20.64;71.15
51603;BME280;37954;51.980;5.850;2023-07-13T06:46:57;101267.75;;;20.94;70.10
51603;BME280;37954;51.980;5.850;2023-07-13T06:51:09;101254.94;;;20.79;69.39
51603;BME280;37954;51.980;5.850;2023-07-13T06:55:21;101258.38;;;21.60;68.94
51603;BME280;37954;51.980;5.850;2023-07-13T06:59:33;101264.22;;;21.82;67.02
51603;BME280;37954;51.980;5.850;2023-07-13T07:03:45;101261.06;;;21.65;66.26
51603;BME280;37954;51.980;5.850;2023-07-13T07:07:57;101267.88;;;21.72;66.17
51603;BME280;37954;51.980;5.850;2023-07-13T07:12:09;101268.75;;;21.63;65.95
51603;BME280;37954;51.980;5.850;2023-07-13T07:16:24;101272.66;;;21.51;66.03
51603;BME280;37954;51.980;5.850;2023-07-13T07:20:36;101267.53;;;21.40;66.33
51603;BME280;37954;51.980;5.850;2023-07-13T07:24:48;101277.47;;;21.21;66.49
51603;BME280;37954;51.980;5.850;2023-07-13T07:29:00;101284.28;;;21.18;66.84
51603;BME280;37954;51.980;5.850;2023-07-13T07:33:15;101278.81;;;21.18;67.11
51603;BME280;37954;51.980;5.850;2023-07-13T07:37:27;101277.47;;;21.21;67.10
51603;BME280;37954;51.980;5.850;2023-07-13T07:41:42;101287.69;;;21.49;67.08
51603;BME280;37954;51.980;5.850;2023-07-13T07:46:07;101283.31;;;21.92;65.97
51603;BME280;37954;51.980;5.850;2023-07-13T07:50:20;101288.81;;;22.21;65.44
51603;BME280;37954;51.980;5.850;2023-07-13T07:54:31;101288.47;;;22.33;65.13
51603;BME280;37954;51.980;5.850;2023-07-13T07:59:03;101285.19;;;22.31;64.62
51603;BME280;37954;51.980;5.850;2023-07-13T08:03:18;101276.91;;;23.12;63.78
51603;BME280;37954;51.980;5.850;2023-07-13T08:07:34;101270.25;;;24.26;61.62
51603;BME280;37954;51.980;5.850;2023-07-13T08:11:46;101276.19;;;24.60;59.34
51603;BME280;37954;51.980;5.850;2023-07-13T08:16:01;101280.50;;;24.94;56.46
51603;BME280;37954;51.980;5.850;2023-07-13T08:20:13;101274.78;;;24.63;56.42
51603;BME280;37954;51.980;5.850;2023-07-13T08:24:25;101270.13;;;24.91;56.49
51603;BME280;37954;51.980;5.850;2023-07-13T08:28:37;101276.22;;;26.10;54.40
51603;BME280;37954;51.980;5.850;2023-07-13T08:32:49;101280.81;;;27.33;51.73
51603;BME280;37954;51.980;5.850;2023-07-13T08:37:02;101272.06;;;28.00;48.89
51603;BME280;37954;51.980;5.850;2023-07-13T08:41:18;101266.19;;;28.01;47.25
51603;BME280;37954;51.980;5.850;2023-07-13T08:45:37;101264.13;;;27.64;47.12
51603;BME280;37954;51.980;5.850;2023-07-13T08:49:51;101273.06;;;26.25;48.04
51603;BME280;37954;51.980;5.850;2023-07-13T08:54:19;101275.81;;;25.22;49.77
51603;BME280;37954;51.980;5.850;2023-07-13T08:58:32;101271.03;;;25.63;50.77
51603;BME280;37954;51.980;5.850;2023-07-13T09:02:57;101259.78;;;26.49;49.29
51603;BME280;37954;51.980;5.850;2023-07-13T09:15:46;101276.63;;;27.61;44.24
51603;BME280;37954;51.980;5.850;2023-07-13T09:20:14;101279.69;;;27.43;44.82
51603;BME280;37954;51.980;5.850;2023-07-13T09:24:41;101273.31;;;27.16;44.34
51603;BME280;37954;51.980;5.850;2023-07-13T09:29:12;101284.84;;;26.39;45.52
51603;BME280;37954;51.980;5.850;2023-07-13T09:33:25;101289.88;;;25.20;49.71
51603;BME280;37954;51.980;5.850;2023-07-13T09:37:43;101302.16;;;24.22;53.21
51603;BME280;37954;51.980;5.850;2023-07-13T09:42:14;101296.41;;;23.53;54.35
51603;BME280;37954;51.980;5.850;2023-07-13T09:46:27;101303.31;;;23.46;55.46
51603;BME280;37954;51.980;5.850;2023-07-13T09:50:40;101303.59;;;23.68;57.03
51603;BME280;37954;51.980;5.850;2023-07-13T09:54:53;101299.94;;;24.56;56.47
51603;BME280;37954;51.980;5.850;2023-07-13T09:59:21;101308.56;;;24.77;55.91
51603;BME280;37954;51.980;5.850;2023-07-13T10:03:35;101305.13;;;25.13;55.96
51603;BME280;37954;51.980;5.850;2023-07-13T10:07:50;101309.50;;;26.22;54.69
51603;BME280;37954;51.980;5.850;2023-07-13T10:12:02;101308.25;;;27.55;51.63
51603;BME280;37954;51.980;5.850;2023-07-13T10:16:13;101307.06;;;28.51;48.40
51603;BME280;37954;51.980;5.850;2023-07-13T10:20:28;101316.13;;;29.07;45.88
51603;BME280;37954;51.980;5.850;2023-07-13T10:24:41;101311.75;;;29.56;43.88
51603;BME280;37954;51.980;5.850;2023-07-13T10:28:56;101313.50;;;29.61;42.51
51603;BME280;37954;51.980;5.850;2023-07-13T10:33:11;101317.53;;;28.84;42.66
51603;BME280;37954;51.980;5.850;2023-07-13T10:37:29;101321.75;;;28.26;43.26
51603;BME280;37954;51.980;5.850;2023-07-13T10:41:44;101332.50;;;27.84;43.36
51603;BME280;37954;51.980;5.850;2023-07-13T10:45:59;101339.81;;;27.06;45.58
51603;BME280;37954;51.980;5.850;2023-07-13T10:50:19;101351.84;;;26.04;49.48
51603;BME280;37954;51.980;5.850;2023-07-13T10:54:33;101346.53;;;26.07;53.11
51603;BME280;37954;51.980;5.850;2023-07-13T10:58:46;101340.03;;;27.18;54.19
51603;BME280;37954;51.980;5.850;2023-07-13T11:02:59;101333.19;;;28.62;52.65
51603;BME280;37954;51.980;5.850;2023-07-13T11:07:29;101334.94;;;29.14;48.86
51603;BME280;37954;51.980;5.850;2023-07-13T11:11:41;101327.94;;;29.16;47.42
51603;BME280;37954;51.980;5.850;2023-07-13T11:15:53;101328.09;;;28.90;44.64
51603;BME280;37954;51.980;5.850;2023-07-13T11:20:10;101323.09;;;28.20;44.34
51603;BME280;37954;51.980;5.850;2023-07-13T11:24:59;101342.47;;;27.28;43.92
51603;BME280;37954;51.980;5.850;2023-07-13T11:37:47;101349.72;;;27.81;43.50
51603;BME280;37954;51.980;5.850;2023-07-13T11:42:01;101340.63;;;28.79;41.88
51603;BME280;37954;51.980;5.850;2023-07-13T11:46:26;101342.34;;;29.39;40.74
51603;BME280;37954;51.980;5.850;2023-07-13T11:50:38;101345.84;;;29.90;40.24
51603;BME280;37954;51.980;5.850;2023-07-13T11:55:01;101342.75;;;29.70;39.87
51603;BME280;37954;51.980;5.850;2023-07-13T11:59:14;101340.53;;;29.05;40.20
51603;BME280;37954;51.980;5.850;2023-07-13T12:03:26;101343.84;;;28.08;40.91
51603;BME280;37954;51.980;5.850;2023-07-13T12:07:38;101348.41;;;27.04;43.17
51603;BME280;37954;51.980;5.850;2023-07-13T12:11:50;101343.13;;;26.55;44.97
51603;BME280;37954;51.980;5.850;2023-07-13T12:16:29;101336.75;;;26.77;46.50
51603;BME280;37954;51.980;5.850;2023-07-13T12:20:40;101339.63;;;26.94;45.95
51603;BME280;37954;51.980;5.850;2023-07-13T12:24:52;101343.91;;;26.86;45.87
51603;BME280;37954;51.980;5.850;2023-07-13T12:29:07;101332.88;;;27.26;45.64
51603;BME280;37954;51.980;5.850;2023-07-13T12:33:19;101333.41;;;27.54;44.03
51603;BME280;37954;51.980;5.850;2023-07-13T12:37:34;101343.31;;;27.55;43.01
51603;BME280;37954;51.980;5.850;2023-07-13T12:41:48;101339.31;;;27.04;43.42
51603;BME280;37954;51.980;5.850;2023-07-13T12:46:03;101345.03;;;26.46;44.64
51603;BME280;37954;51.980;5.850;2023-07-13T12:50:18;101343.69;;;25.98;44.67
51603;BME280;37954;51.980;5.850;2023-07-13T12:54:31;101347.06;;;25.59;46.12
51603;BME280;37954;51.980;5.850;2023-07-13T12:58:43;101347.91;;;25.32;46.37
51603;BME280;37954;51.980;5.850;2023-07-13T13:02:58;101350.88;;;25.22;46.27
51603;BME280;37954;51.980;5.850;2023-07-13T13:07:12;101348.91;;;25.50;46.75
51603;BME280;37954;51.980;5.850;2023-07-13T13:11:26;101344.56;;;26.08;46.10
51603;BME280;37954;51.980;5.850;2023-07-13T13:15:37;101341.03;;;26.29;45.32
51603;BME280;37954;51.980;5.850;2023-07-13T13:19:50;101354.16;;;26.32;44.33
51603;BME280;37954;51.980;5.850;2023-07-13T13:24:11;101343.22;;;26.41;43.13
51603;BME280;37954;51.980;5.850;2023-07-13T13:28:23;101336.97;;;26.49;42.87
51603;BME280;37954;51.980;5.850;2023-07-13T13:32:35;101336.63;;;26.82;43.00
51603;BME280;37954;51.980;5.850;2023-07-13T13:36:47;101345.63;;;26.96;42.05
51603;BME280;37954;51.980;5.850;2023-07-13T13:41:03;101352.38;;;26.90;41.43
51603;BME280;37954;51.980;5.850;2023-07-13T13:45:15;101345.03;;;26.77;41.79
51603;BME280;37954;51.980;5.850;2023-07-13T13:49:31;101341.84;;;26.92;42.05
51603;BME280;37954;51.980;5.850;2023-07-13T13:53:44;101346.94;;;27.07;41.77
51603;BME280;37954;51.980;5.850;2023-07-13T13:57:56;101341.47;;;27.16;40.78
51603;BME280;37954;51.980;5.850;2023-07-13T14:02:27;101338.41;;;27.26;40.88
51603;BME280;37954;51.980;5.850;2023-07-13T14:06:39;101352.06;;;27.31;40.82
51603;BME280;37954;51.980;5.850;2023-07-13T14:10:54;101352.69;;;26.88;40.41
51603;BME280;37954;51.980;5.850;2023-07-13T14:15:17;101352.19;;;26.47;41.32
51603;BME280;37954;51.980;5.850;2023-07-13T14:19:30;101354.97;;;26.33;41.38
51603;BME280;37954;51.980;5.850;2023-07-13T14:23:43;101356.66;;;26.20;42.03
51603;BME280;37954;51.980;5.850;2023-07-13T14:27:58;101358.66;;;26.28;42.28
51603;BME280;37954;51.980;5.850;2023-07-13T14:32:19;101350.13;;;26.30;42.11
51603;BME280;37954;51.980;5.850;2023-07-13T14:36:33;101356.75;;;26.29;41.99
51603;BME280;37954;51.980;5.850;2023-07-13T14:40:46;101357.94;;;26.14;41.84
51603;BME280;37954;51.980;5.850;2023-07-13T14:44:58;101356.16;;;25.96;40.83
51603;BME280;37954;51.980;5.850;2023-07-13T14:49:23;101360.25;;;25.85;40.95
51603;BME280;37954;51.980;5.850;2023-07-13T14:53:36;101362.47;;;25.96;41.47
51603;BME280;37954;51.980;5.850;2023-07-13T14:57:50;101363.78;;;25.99;42.48
51603;BME280;37954;51.980;5.850;2023-07-13T15:02:02;101363.28;;;25.97;42.54
51603;BME280;37954;51.980;5.850;2023-07-13T15:06:14;101369.53;;;25.89;42.49
51603;BME280;37954;51.980;5.850;2023-07-13T15:10:32;101363.00;;;25.85;42.43
51603;BME280;37954;51.980;5.850;2023-07-13T15:14:44;101370.25;;;25.81;42.50
51603;BME280;37954;51.980;5.850;2023-07-13T15:18:56;101367.84;;;25.79;42.92
51603;BME280;37954;51.980;5.850;2023-07-13T15:23:09;101363.56;;;25.73;43.37
51603;BME280;37954;51.980;5.850;2023-07-13T15:27:21;101375.81;;;25.67;43.24
51603;BME280;37954;51.980;5.850;2023-07-13T15:31:34;101374.78;;;25.49;43.70
51603;BME280;37954;51.980;5.850;2023-07-13T15:35:48;101371.44;;;25.39;43.90
51603;BME280;37954;51.980;5.850;2023-07-13T15:40:02;101371.75;;;25.23;43.83
51603;BME280;37954;51.980;5.850;2023-07-13T15:44:24;101378.09;;;25.10;44.17
51603;BME280;37954;51.980;5.850;2023-07-13T15:48:37;101375.53;;;25.00;44.17
51603;BME280;37954;51.980;5.850;2023-07-13T15:52:52;101383.06;;;25.08;44.50
51603;BME280;37954;51.980;5.850;2023-07-13T15:57:09;101383.38;;;25.20;44.67
51603;BME280;37954;51.980;5.850;2023-07-13T16:01:22;101386.53;;;25.27;45.46
51603;BME280;37954;51.980;5.850;2023-07-13T16:05:35;101389.28;;;25.41;45.93
51603;BME280;37954;51.980;5.850;2023-07-13T16:09:47;101380.69;;;25.29;46.10
51603;BME280;37954;51.980;5.850;2023-07-13T16:14:00;101379.59;;;25.16;45.97
51603;BME280;37954;51.980;5.850;2023-07-13T16:18:12;101384.59;;;25.01;46.24
51603;BME280;37954;51.980;5.850;2023-07-13T16:22:24;101382.91;;;24.86;46.28
51603;BME280;37954;51.980;5.850;2023-07-13T16:26:37;101375.94;;;24.61;46.67
51603;BME280;37954;51.980;5.850;2023-07-13T16:30:54;101371.97;;;24.53;47.00
51603;BME280;37954;51.980;5.850;2023-07-13T16:35:07;101374.72;;;24.53;47.24
51603;BME280;37954;51.980;5.850;2023-07-13T16:39:20;101377.56;;;24.62;47.54
51603;BME280;37954;51.980;5.850;2023-07-13T16:43:34;101378.38;;;24.62;47.70
51603;BME280;37954;51.980;5.850;2023-07-13T16:47:47;101377.66;;;24.57;48.10
51603;BME280;37954;51.980;5.850;2023-07-13T16:52:02;101366.25;;;24.50;49.10
51603;BME280;37954;51.980;5.850;2023-07-13T16:56:17;101361.03;;;24.35;49.36
51603;BME280;37954;51.980;5.850;2023-07-13T17:00:32;101368.66;;;24.38;49.42
51603;BME280;37954;51.980;5.850;2023-07-13T17:04:44;101381.13;;;24.30;49.84
51603;BME280;37954;51.980;5.850;2023-07-13T17:08:58;101381.81;;;24.22;50.48
51603;BME280;37954;51.980;5.850;2023-07-13T17:13:12;101381.53;;;24.23;50.44
51603;BME280;37954;51.980;5.850;2023-07-13T17:17:29;101381.06;;;24.16;49.43
51603;BME280;37954;51.980;5.850;2023-07-13T17:21:47;101373.88;;;24.02;47.80
51603;BME280;37954;51.980;5.850;2023-07-13T17:25:59;101381.13;;;23.92;47.33
51603;BME280;37954;51.980;5.850;2023-07-13T17:30:19;101384.28;;;23.86;46.83
51603;BME280;37954;51.980;5.850;2023-07-13T17:34:33;101389.00;;;23.80;47.08
51603;BME280;37954;51.980;5.850;2023-07-13T17:38:47;101387.28;;;23.66;46.79
51603;BME280;37954;51.980;5.850;2023-07-13T17:43:03;101378.88;;;23.57;46.66
51603;BME280;37954;51.980;5.850;2023-07-13T17:47:26;101384.66;;;23.55;46.80
51603;BME280;37954;51.980;5.850;2023-07-13T17:51:39;101387.81;;;23.44;46.95
51603;BME280;37954;51.980;5.850;2023-07-13T17:55:51;101386.03;;;23.34;46.94
51603;BME280;37954;51.980;5.850;2023-07-13T18:00:06;101389.97;;;23.23;47.30
51603;BME280;37954;51.980;5.850;2023-07-13T18:04:38;101389.00;;;23.14;47.40
51603;BME280;37954;51.980;5.850;2023-07-13T18:08:53;101387.16;;;23.04;47.60
51603;BME280;37954;51.980;5.850;2023-07-13T18:13:05;101397.09;;;23.00;47.79
51603;BME280;37954;51.980;5.850;2023-07-13T18:17:18;101407.00;;;22.96;48.08
51603;BME280;37954;51.980;5.850;2023-07-13T18:21:31;101412.56;;;22.86;48.46
51603;BME280;37954;51.980;5.850;2023-07-13T18:25:45;101405.28;;;22.71;48.56
51603;BME280;37954;51.980;5.850;2023-07-13T18:29:59;101405.09;;;22.63;48.74
51603;BME280;37954;51.980;5.850;2023-07-13T18:34:12;101408.81;;;22.48;49.05
51603;BME280;37954;51.980;5.850;2023-07-13T18:38:26;101411.03;;;22.41;49.27
51603;BME280;37954;51.980;5.850;2023-07-13T18:42:44;101408.09;;;22.32;49.81
51603;BME280;37954;51.980;5.850;2023-07-13T18:46:57;101417.97;;;22.28;50.17
51603;BME280;37954;51.980;5.850;2023-07-13T18:51:10;101427.03;;;22.23;50.59
51603;BME280;37954;51.980;5.850;2023-07-13T18:55:24;101417.56;;;22.11;50.95
51603;BME280;37954;51.980;5.850;2023-07-13T18:59:36;101418.69;;;22.00;51.41
51603;BME280;37954;51.980;5.850;2023-07-13T19:03:48;101437.06;;;21.94;51.99
51603;BME280;37954;51.980;5.850;2023-07-13T19:08:08;101427.25;;;21.83;52.28
51603;BME280;37954;51.980;5.850;2023-07-13T19:12:23;101425.94;;;21.75;53.03
51603;BME280;37954;51.980;5.850;2023-07-13T19:16:37;101430.34;;;21.66;53.29
51603;BME280;37954;51.980;5.850;2023-07-13T19:20:56;101437.78;;;21.56;53.72
51603;BME280;37954;51.980;5.850;2023-07-13T19:25:14;101430.44;;;21.46;54.24
51603;BME280;37954;51.980;5.850;2023-07-13T19:29:27;101440.56;;;21.45;54.70
51603;BME280;37954;51.980;5.850;2023-07-13T19:33:41;101431.56;;;21.35;54.74
51603;BME280;37954;51.980;5.850;2023-07-13T19:37:53;101440.03;;;21.33;54.90
51603;BME280;37954;51.980;5.850;2023-07-13T19:42:25;101450.19;;;21.23;55.28
51603;BME280;37954;51.980;5.850;2023-07-13T19:46:37;101449.38;;;21.12;55.60
51603;BME280;37954;51.980;5.850;2023-07-13T19:50:50;101445.81;;;20.96;56.08
51603;BME280;37954;51.980;5.850;2023-07-13T19:55:09;101449.38;;;20.81;56.54
51603;BME280;37954;51.980;5.850;2023-07-13T19:59:26;101452.41;;;20.70;56.83
51603;BME280;37954;51.980;5.850;2023-07-13T20:03:38;101455.97;;;20.60;57.63
51603;BME280;37954;51.980;5.850;2023-07-13T20:07:56;101461.41;;;20.50;58.10
51603;BME280;37954;51.980;5.850;2023-07-13T20:12:12;101459.50;;;20.40;58.26
51603;BME280;37954;51.980;5.850;2023-07-13T20:16:25;101464.34;;;20.33;58.76
51603;BME280;37954;51.980;5.850;2023-07-13T20:20:41;101466.25;;;20.23;59.28
51603;BME280;37954;51.980;5.850;2023-07-13T20:24:57;101470.34;;;20.20;59.43
51603;BME280;37954;51.980;5.850;2023-07-13T20:29:09;101474.41;;;20.12;59.82
51603;BME280;37954;51.980;5.850;2023-07-13T20:33:23;101458.53;;;19.99;59.98
51603;BME280;37954;51.980;5.850;2023-07-13T20:37:38;101456.88;;;19.93;60.54
51603;BME280;37954;51.980;5.850;2023-07-13T20:41:49;101468.31;;;19.85;60.88
51603;BME280;37954;51.980;5.850;2023-07-13T20:46:10;101477.28;;;19.80;61.39
51603;BME280;37954;51.980;5.850;2023-07-13T20:50:27;101473.72;;;19.70;61.82
51603;BME280;37954;51.980;5.850;2023-07-13T20:54:39;101482.13;;;19.63;61.99
51603;BME280;37954;51.980;5.850;2023-07-13T20:58:56;101469.03;;;19.60;62.57
51603;BME280;37954;51.980;5.850;2023-07-13T21:03:27;101472.00;;;19.59;63.11
51603;BME280;37954;51.980;5.850;2023-07-13T21:07:39;101464.84;;;19.47;63.61
51603;BME280;37954;51.980;5.850;2023-07-13T21:11:51;101466.72;;;19.42;63.70
51603;BME280;37954;51.980;5.850;2023-07-13T21:16:15;101472.97;;;19.37;64.15
51603;BME280;37954;51.980;5.850;2023-07-13T21:20:32;101472.34;;;19.25;64.54
51603;BME280;37954;51.980;5.850;2023-07-13T21:24:44;101478.00;;;19.13;64.86
51603;BME280;37954;51.980;5.850;2023-07-13T21:28:55;101478.75;;;19.04;65.37
51603;BME280;37954;51.980;5.850;2023-07-13T21:33:11;101479.78;;;18.98;66.01
51603;BME280;37954;51.980;5.850;2023-07-13T21:37:31;101459.25;;;18.80;66.23
51603;BME280;37954;51.980;5.850;2023-07-13T21:41:43;101478.84;;;18.82;66.85
51603;BME280;37954;51.980;5.850;2023-07-13T21:45:56;101475.75;;;18.68;67.17
51603;BME280;37954;51.980;5.850;2023-07-13T21:50:08;101482.28;;;18.67;67.43
51603;BME280;37954;51.980;5.850;2023-07-13T21:54:21;101492.28;;;18.62;67.78
51603;BME280;37954;51.980;5.850;2023-07-13T21:58:34;101488.41;;;18.58;68.20
51603;BME280;37954;51.980;5.850;2023-07-13T22:02:46;101490.00;;;18.54;68.55
51603;BME280;37954;51.980;5.850;2023-07-13T22:06:58;101479.84;;;18.44;68.68
51603;BME280;37954;51.980;5.850;2023-07-13T22:11:14;101481.69;;;18.38;68.99
51603;BME280;37954;51.980;5.850;2023-07-13T22:15:26;101474.25;;;18.29;69.47
51603;BME280;37954;51.980;5.850;2023-07-13T22:19:40;101476.16;;;18.28;69.56
51603;BME280;37954;51.980;5.850;2023-07-13T22:23:52;101481.78;;;18.22;69.84
51603;BME280;37954;51.980;5.850;2023-07-13T22:28:05;101474.66;;;18.16;70.32